Time;durP1;ratioP1;P1;durP2;ratioP2;P2;SDS_P1;SDS_P2;PMS_P1;PMS_P2;Temp;Humidity;BMP_temperature;BMP_pressure;BME280_temperature;BME280_humidity;BME280_pressure;Samples;Min_cycle;Max_cycle;Signal;HPM_P1;HPM_P2
2021/09/07 00:00:05;;;;;;;3.22;2.30;;;;;;;;;;10281391;28;20083;-63
2021/09/07 00:05:11;;;;;;;2.88;2.13;;;;;;;;;;10282624;28;20431;-63
2021/09/07 00:10:10;;;;;;;5.22;2.20;;;;;;;;;;10282081;28;20506;-63
2021/09/07 00:15:12;;;;;;;4.15;1.75;;;;;;;;;;10280936;28;20414;-63
2021/09/07 00:20:14;;;;;;;5.32;2.53;;;;;;;;;;10281946;28;20080;-63
2021/09/07 00:25:12;;;;;;;4.00;2.13;;;;;;;;;;10281289;28;20045;-64
2021/09/07 00:30:11;;;;;;;2.95;2.08;;;;;;;;;;10280527;28;20453;-63
2021/09/07 00:35:11;;;;;;;3.05;1.90;;;;;;;;;;10281412;28;20049;-63
2021/09/07 00:40:12;;;;;;;3.65;2.10;;;;;;;;;;10280878;28;20087;-63
2021/09/07 00:45:12;;;;;;;4.45;1.98;;;;;;;;;;10280877;28;20099;-63
2021/09/07 00:50:11;;;;;;;6.15;3.03;;;;;;;;;;10280940;28;20499;-63
2021/09/07 00:55:12;;;;;;;2.53;1.80;;;;;;;;;;10280749;28;20663;-63
2021/09/07 01:00:11;;;;;;;2.45;1.92;;;;;;;;;;10280319;28;20163;-63
2021/09/07 01:05:11;;;;;;;4.38;2.60;;;;;;;;;;10279460;28;20526;-63
2021/09/07 01:10:11;;;;;;;6.63;1.92;;;;;;;;;;10279709;28;20040;-63
2021/09/07 01:15:10;;;;;;;4.53;2.03;;;;;;;;;;10279937;28;20073;-63
2021/09/07 01:20:10;;;;;;;3.90;2.30;;;;;;;;;;10279963;28;20090;-63
2021/09/07 01:25:11;;;;;;;3.40;1.98;;;;;;;;;;10279281;28;20421;-64
2021/09/07 01:30:09;;;;;;;2.58;1.98;;;;;;;;;;10279095;28;20053;-63
2021/09/07 01:35:08;;;;;;;2.38;1.90;;;;;;;;;;10278778;28;20049;-63
2021/09/07 01:40:08;;;;;;;3.83;2.30;;;;;;;;;;10277890;28;20081;-63
2021/09/07 01:45:09;;;;;;;4.07;2.03;;;;;;;;;;10278520;28;20049;-63
2021/09/07 01:50:08;;;;;;;4.72;2.15;;;;;;;;;;10278399;28;20079;-63
2021/09/07 01:55:07;;;;;;;3.38;1.77;;;;;;;;;;10278190;28;20041;-63
2021/09/07 02:00:08;;;;;;;4.15;1.80;;;;;;;;;;10277959;28;20077;-64
2021/09/07 02:05:10;;;;;;;25.70;2.47;;;;;;;;;;10277589;28;20481;-64
2021/09/07 02:10:09;;;;;;;4.35;2.05;;;;;;;;;;10277537;28;20510;-63
2021/09/07 02:15:10;;;;;;;2.15;1.95;;;;;;;;;;10277374;28;20052;-63
2021/09/07 02:20:12;;;;;;;4.40;2.53;;;;;;;;;;10277207;28;20093;-64
2021/09/07 02:25:12;;;;;;;5.47;2.20;;;;;;;;;;10277160;28;20052;-64
2021/09/07 02:30:12;;;;;;;6.60;2.50;;;;;;;;;;10277162;28;20072;-64
2021/09/07 02:35:11;;;;;;;2.53;2.30;;;;;;;;;;10276784;28;20053;-64
2021/09/07 02:40:10;;;;;;;5.28;2.80;;;;;;;;;;10276731;28;20076;-64
2021/09/07 02:45:09;;;;;;;4.93;2.88;;;;;;;;;;10275319;28;20048;-64
2021/09/07 02:50:12;;;;;;;6.97;3.00;;;;;;;;;;10276365;28;20478;-64
2021/09/07 02:55:11;;;;;;;5.82;3.20;;;;;;;;;;10276783;28;20088;-64
2021/09/07 03:00:10;;;;;;;7.22;2.85;;;;;;;;;;10275177;28;20755;-64
2021/09/07 03:05:09;;;;;;;4.05;3.03;;;;;;;;;;10275588;28;20065;-64
2021/09/07 03:10:10;;;;;;;7.50;3.35;;;;;;;;;;10276123;28;20045;-64
2021/09/07 03:15:10;;;;;;;6.32;2.78;;;;;;;;;;10276080;28;20067;-64
2021/09/07 03:20:09;;;;;;;4.75;2.50;;;;;;;;;;10275905;28;20517;-64
2021/09/07 03:25:08;;;;;;;5.25;2.78;;;;;;;;;;10275854;28;20052;-63
2021/09/07 03:30:09;;;;;;;6.38;2.75;;;;;;;;;;10275884;28;20064;-64
2021/09/07 03:35:08;;;;;;;6.20;2.80;;;;;;;;;;10274719;28;20045;-64
2021/09/07 03:40:08;;;;;;;5.25;2.90;;;;;;;;;;10275457;28;20080;-63
2021/09/07 03:45:12;;;;;;;7.13;3.15;;;;;;;;;;10275392;28;20056;-63
2021/09/07 03:50:11;;;;;;;6.07;3.30;;;;;;;;;;10275308;28;20144;-63
2021/09/07 03:55:11;;;;;;;7.65;3.65;;;;;;;;;;10275420;28;20044;-63
2021/09/07 04:00:12;;;;;;;4.55;2.97;;;;;;;;;;10276226;28;20545;-63
2021/09/07 04:05:11;;;;;;;7.07;2.78;;;;;;;;;;10281428;28;20104;-64
2021/09/07 04:10:10;;;;;;;6.65;3.40;;;;;;;;;;10282180;28;20091;-63
2021/09/07 04:15:09;;;;;;;8.10;3.67;;;;;;;;;;10281984;28;20056;-62
2021/09/07 04:20:11;;;;;;;9.27;3.53;;;;;;;;;;10281879;28;20076;-63
2021/09/07 04:25:11;;;;;;;10.38;3.40;;;;;;;;;;10281552;28;20469;-64
2021/09/07 04:30:10;;;;;;;6.72;3.38;;;;;;;;;;10281471;28;20060;-63
2021/09/07 04:35:10;;;;;;;5.60;3.40;;;;;;;;;;10281222;28;20525;-65
2021/09/07 04:40:09;;;;;;;5.50;3.60;;;;;;;;;;10281048;28;20450;-62
2021/09/07 04:45:08;;;;;;;6.90;3.83;;;;;;;;;;10280791;28;20045;-64
2021/09/07 04:50:07;;;;;;;6.88;4.72;;;;;;;;;;10280841;28;20087;-64
2021/09/07 04:55:07;;;;;;;41.45;33.85;;;;;;;;;;10279106;28;20069;-66
2021/09/07 05:00:07;;;;;;;4.00;2.88;;;;;;;;;;10274696;28;20088;-65
2021/09/07 05:05:06;;;;;;;16.17;10.88;;;;;;;;;;10277287;28;20455;-66
2021/09/07 05:10:08;;;;;;;7.03;3.10;;;;;;;;;;10280077;28;20521;-65
2021/09/07 05:15:07;;;;;;;11.90;7.13;;;;;;;;;;10279843;28;20045;-65
2021/09/07 05:20:07;;;;;;;10.55;7.70;;;;;;;;;;10279043;28;20084;-65
2021/09/07 05:25:06;;;;;;;4.80;3.10;;;;;;;;;;10279502;28;20410;-64
2021/09/07 05:30:08;;;;;;;8.20;4.47;;;;;;;;;;10279254;28;20083;-65
2021/09/07 05:35:07;;;;;;;6.10;3.95;;;;;;;;;;10278816;28;20041;-64
2021/09/07 05:40:07;;;;;;;21.15;4.18;;;;;;;;;;10278788;28;20077;-65
2021/09/07 05:45:08;;;;;;;6.53;3.50;;;;;;;;;;10278668;28;20052;-64
2021/09/07 05:50:08;;;;;;;4.68;3.22;;;;;;;;;;10278476;28;20048;-65
2021/09/07 05:55:09;;;;;;;7.72;4.40;;;;;;;;;;10278404;28;20079;-65
2021/09/07 06:00:10;;;;;;;11.27;3.58;;;;;;;;;;10278036;28;20081;-65
2021/09/07 06:05:09;;;;;;;8.85;3.47;;;;;;;;;;10277625;28;20075;-65
2021/09/07 06:10:09;;;;;;;8.90;3.22;;;;;;;;;;10277988;28;20044;-65
2021/09/07 06:15:10;;;;;;;4.57;3.13;;;;;;;;;;10277630;28;20041;-65
2021/09/07 06:20:09;;;;;;;9.13;4.07;;;;;;;;;;10276207;28;20080;-65
2021/09/07 06:25:10;;;;;;;10.77;3.72;;;;;;;;;;10277094;28;20051;-65
2021/09/07 06:30:10;;;;;;;6.75;3.47;;;;;;;;;;10276882;28;20502;-65
2021/09/07 06:35:09;;;;;;;4.93;2.92;;;;;;;;;;10275760;28;20056;-65
2021/09/07 06:40:08;;;;;;;6.82;2.92;;;;;;;;;;10276913;28;20077;-65
2021/09/07 06:45:08;;;;;;;8.95;4.07;;;;;;;;;;10276743;28;20083;-66
2021/09/07 06:50:08;;;;;;;11.60;4.10;;;;;;;;;;10274803;28;20049;-64
2021/09/07 06:55:08;;;;;;;7.60;3.22;;;;;;;;;;10276630;28;20091;-64
2021/09/07 07:00:07;;;;;;;6.88;3.22;;;;;;;;;;10276138;28;20077;-65
2021/09/07 07:05:06;;;;;;;7.72;3.60;;;;;;;;;;10275630;28;20065;-65
2021/09/07 07:10:07;;;;;;;11.18;3.33;;;;;;;;;;10276225;28;20595;-70
2021/09/07 07:15:06;;;;;;;8.13;3.30;;;;;;;;;;10277536;28;20045;-65
2021/09/07 07:20:05;;;;;;;13.05;4.72;;;;;;;;;;10276496;28;20080;-65
2021/09/07 07:25:04;;;;;;;10.15;4.85;;;;;;;;;;10275840;28;20037;-66
2021/09/07 07:30:04;;;;;;;8.32;3.00;;;;;;;;;;10275649;28;20442;-66
2021/09/07 07:35:03;;;;;;;6.88;4.50;;;;;;;;;;10276599;28;20041;-65
2021/09/07 07:40:01;;;;;;;9.73;4.13;;;;;;;;;;10283279;28;20391;-66
2021/09/07 07:44:59;;;;;;;14.23;4.85;;;;;;;;;;10283374;28;20087;-66
2021/09/07 07:49:59;;;;;;;7.50;4.80;;;;;;;;;;10283143;28;20095;-67
2021/09/07 07:54:57;;;;;;;6.68;3.55;;;;;;;;;;10282902;28;20230;-67
2021/09/07 07:59:56;;;;;;;12.38;3.90;;;;;;;;;;10282877;28;20065;-65
2021/09/07 08:04:54;;;;;;;36.50;5.82;;;;;;;;;;10281915;28;20489;-66
2021/09/07 08:09:54;;;;;;;13.35;3.30;;;;;;;;;;10282315;28;20514;-65
2021/09/07 08:14:52;;;;;;;8.77;3.15;;;;;;;;;;10282221;28;20068;-65
2021/09/07 08:19:50;;;;;;;30.80;4.60;;;;;;;;;;10281887;28;20064;-66
2021/09/07 08:24:50;;;;;;;16.65;3.83;;;;;;;;;;10281597;28;20497;-66
2021/09/07 08:29:49;;;;;;;4.63;2.85;;;;;;;;;;10281501;28;20427;-66
2021/09/07 08:34:48;;;;;;;5.57;2.40;;;;;;;;;;10279547;28;20424;-66
2021/09/07 08:39:46;;;;;;;5.55;3.65;;;;;;;;;;10281237;28;20049;-65
2021/09/07 08:44:46;;;;;;;3.67;2.10;;;;;;;;;;10280846;28;20080;-64
2021/09/07 08:49:48;;;;;;;4.55;2.08;;;;;;;;;;10280458;28;20044;-64
2021/09/07 08:54:46;;;;;;;7.35;1.95;;;;;;;;;;10280474;28;20048;-64
2021/09/07 08:59:45;;;;;;;4.13;1.80;;;;;;;;;;10280252;28;20087;-64
2021/09/07 09:04:44;;;;;;;9.43;2.25;;;;;;;;;;10279601;28;20087;-64
2021/09/07 09:09:45;;;;;;;7.85;5.25;;;;;;;;;;10279956;28;20045;-65
2021/09/07 09:14:44;;;;;;;4.82;2.63;;;;;;;;;;10280103;28;20041;-65
2021/09/07 09:19:48;;;;;;;7.50;2.83;;;;;;;;;;10279554;28;20052;-65
2021/09/07 09:24:48;;;;;;;2.72;1.73;;;;;;;;;;10278331;28;20045;-65
2021/09/07 09:29:46;;;;;;;5.40;2.17;;;;;;;;;;10279105;28;20071;-65
2021/09/07 09:34:44;;;;;;;6.53;1.75;;;;;;;;;;10279236;28;20049;-65
2021/09/07 09:39:47;;;;;;;4.00;1.80;;;;;;;;;;10278257;28;20415;-65
2021/09/07 09:44:47;;;;;;;4.57;2.10;;;;;;;;;;10278597;28;20077;-65
2021/09/07 09:49:45;;;;;;;6.43;2.03;;;;;;;;;;10278493;28;20060;-65
2021/09/07 09:54:44;;;;;;;7.00;2.05;;;;;;;;;;10278271;28;20087;-65
2021/09/07 09:59:42;;;;;;;4.95;2.33;;;;;;;;;;10277175;28;20418;-65
2021/09/07 10:04:42;;;;;;;5.10;1.98;;;;;;;;;;10276772;28;20091;-65
2021/09/07 10:09:41;;;;;;;5.55;2.15;;;;;;;;;;10277662;28;20048;-65
2021/09/07 10:14:44;;;;;;;4.88;2.28;;;;;;;;;;10277616;28;20076;-64
2021/09/07 10:19:46;;;;;;;7.88;2.17;;;;;;;;;;10277531;28;20048;-65
2021/09/07 10:24:52;;;;;;;4.00;2.20;;;;;;;;;;10277109;28;20472;-65
2021/09/07 10:29:52;;;;;;;4.38;2.17;;;;;;;;;;10276950;28;20048;-65
2021/09/07 10:35:04;;;;;;;2.10;1.83;;;;;;;;;;10277109;28;20056;-65
2021/09/07 10:40:15;;;;;;;10.50;2.63;;;;;;;;;;10276847;28;20422;-65
2021/09/07 10:45:13;;;;;;;4.97;2.55;;;;;;;;;;10276739;28;20498;-65
2021/09/07 10:50:13;;;;;;;8.23;2.78;;;;;;;;;;10276715;28;20060;-65
2021/09/07 10:55:16;;;;;;;5.90;2.22;;;;;;;;;;10276671;28;20041;-65
2021/09/07 11:00:29;;;;;;;5.22;2.35;;;;;;;;;;10276493;28;20068;-65
2021/09/07 11:05:40;;;;;;;6.75;2.00;;;;;;;;;;10273776;28;20077;-65
2021/09/07 11:10:40;;;;;;;5.45;2.08;;;;;;;;;;10278954;28;20076;-65
2021/09/07 11:15:39;;;;;;;3.08;1.80;;;;;;;;;;10283294;28;20053;-65
2021/09/07 11:20:40;;;;;;;2.33;2.00;;;;;;;;;;10284466;28;20045;-65
2021/09/07 11:25:39;;;;;;;2.90;2.33;;;;;;;;;;10282989;28;20522;-65
2021/09/07 11:30:38;;;;;;;4.10;2.50;;;;;;;;;;10283336;28;20045;-65
2021/09/07 11:35:40;;;;;;;6.65;2.10;;;;;;;;;;10282696;28;20051;-65
2021/09/07 11:40:41;;;;;;;4.75;2.83;;;;;;;;;;10282579;28;20044;-65
2021/09/07 11:45:40;;;;;;;3.60;2.17;;;;;;;;;;10283055;28;20072;-65
2021/09/07 11:50:40;;;;;;;5.07;2.40;;;;;;;;;;10282068;28;20425;-65
2021/09/07 11:55:40;;;;;;;10.00;3.20;;;;;;;;;;10282472;28;20045;-65
2021/09/07 12:00:38;;;;;;;4.30;2.65;;;;;;;;;;10282513;28;20053;-65
2021/09/07 12:05:54;;;;;;;3.00;2.10;;;;;;;;;;10281476;28;20479;-65
2021/09/07 12:10:54;;;;;;;4.68;3.15;;;;;;;;;;10281454;28;20037;-65
2021/09/07 12:15:52;;;;;;;4.60;2.35;;;;;;;;;;10281458;28;20049;-65
2021/09/07 12:20:51;;;;;;;4.75;2.55;;;;;;;;;;10279193;28;20060;-65
2021/09/07 12:25:50;;;;;;;3.95;2.58;;;;;;;;;;10281631;28;20073;-65
2021/09/07 12:30:49;;;;;;;3.83;3.42;;;;;;;;;;10280796;28;20041;-65
2021/09/07 12:35:53;;;;;;;5.15;2.05;;;;;;;;;;10281013;28;20049;-65
2021/09/07 12:40:58;;;;;;;4.15;2.75;;;;;;;;;;10280398;28;20494;-65
2021/09/07 12:45:58;;;;;;;5.55;1.92;;;;;;;;;;10279984;28;20072;-65
2021/09/07 12:50:58;;;;;;;2.72;2.03;;;;;;;;;;10279912;28;20071;-65
2021/09/07 12:55:58;;;;;;;5.35;3.55;;;;;;;;;;10279696;28;20041;-65
2021/09/07 13:00:56;;;;;;;3.92;2.42;;;;;;;;;;10279319;28;20044;-65
2021/09/07 13:05:55;;;;;;;5.03;3.13;;;;;;;;;;10279261;28;20072;-66
2021/09/07 13:10:53;;;;;;;7.25;3.60;;;;;;;;;;10279015;28;20080;-65
2021/09/07 13:15:53;;;;;;;4.10;2.65;;;;;;;;;;10278934;28;20056;-65
2021/09/07 13:20:52;;;;;;;4.53;2.33;;;;;;;;;;10278617;28;20045;-65
2021/09/07 13:25:50;;;;;;;2.70;2.08;;;;;;;;;;10278786;28;20091;-65
2021/09/07 13:30:49;;;;;;;5.40;2.55;;;;;;;;;;10279088;28;20072;-64
2021/09/07 13:35:48;;;;;;;3.55;2.05;;;;;;;;;;10278885;28;20080;-65
2021/09/07 13:40:47;;;;;;;3.25;1.95;;;;;;;;;;10278352;28;20530;-65
2021/09/07 13:45:45;;;;;;;3.35;2.10;;;;;;;;;;10277688;28;20083;-65
2021/09/07 13:50:43;;;;;;;3.35;3.03;;;;;;;;;;10277462;28;20052;-64
2021/09/07 13:55:43;;;;;;;5.57;2.05;;;;;;;;;;10277229;28;20279;-64
2021/09/07 14:00:42;;;;;;;4.88;2.00;;;;;;;;;;10277961;28;20064;-64
2021/09/07 14:05:40;;;;;;;9.25;3.47;;;;;;;;;;10277660;28;20068;-64
2021/09/07 14:10:39;;;;;;;5.72;2.55;;;;;;;;;;10277148;28;20434;-64
2021/09/07 14:15:38;;;;;;;4.20;3.28;;;;;;;;;;10276566;28;20044;-64
2021/09/07 14:20:37;;;;;;;4.35;1.83;;;;;;;;;;10276303;28;20532;-64
2021/09/07 14:25:35;;;;;;;3.50;2.67;;;;;;;;;;10276454;28;20081;-64
2021/09/07 14:30:33;;;;;;;3.10;2.05;;;;;;;;;;10276535;28;20049;-64
2021/09/07 14:35:33;;;;;;;8.95;4.85;;;;;;;;;;10276716;28;20081;-64
2021/09/07 14:40:31;;;;;;;13.98;4.32;;;;;;;;;;10275997;28;20041;-65
2021/09/07 14:45:30;;;;;;;8.95;3.92;;;;;;;;;;10275441;28;20076;-64
2021/09/07 14:50:30;;;;;;;7.47;3.70;;;;;;;;;;10276178;28;20052;-64
2021/09/07 14:55:36;;;;;;;6.20;4.20;;;;;;;;;;10276047;28;20052;-64
2021/09/07 15:00:34;;;;;;;9.07;3.33;;;;;;;;;;10277939;28;20068;-65
2021/09/07 15:05:36;;;;;;;5.05;2.38;;;;;;;;;;10275213;28;20096;-63
2021/09/07 15:10:36;;;;;;;6.22;4.97;;;;;;;;;;10275733;28;20049;-64
2021/09/07 15:15:34;;;;;;;9.35;3.13;;;;;;;;;;10275336;28;20426;-64
2021/09/07 15:20:33;;;;;;;11.38;3.53;;;;;;;;;;10274937;28;20045;-65
2021/09/07 15:25:31;;;;;;;11.25;4.90;;;;;;;;;;10274530;28;20517;-64
2021/09/07 15:30:31;;;;;;;5.63;2.50;;;;;;;;;;10274834;28;20044;-64
2021/09/07 15:35:30;;;;;;;11.13;9.85;;;;;;;;;;10274769;28;20442;-65
2021/09/07 15:40:28;;;;;;;10.38;4.78;;;;;;;;;;10274702;28;20060;-64
2021/09/07 15:45:26;;;;;;;6.78;4.28;;;;;;;;;;10275055;28;20084;-65
2021/09/07 15:50:26;;;;;;;3.85;2.35;;;;;;;;;;10274312;28;20041;-65
2021/09/07 15:55:24;;;;;;;8.32;2.72;;;;;;;;;;10274348;28;20501;-65
2021/09/07 16:00:23;;;;;;;6.55;2.13;;;;;;;;;;10282793;28;20044;-65
2021/09/07 16:05:21;;;;;;;5.10;1.92;;;;;;;;;;10281222;28;20493;-66
2021/09/07 16:10:21;;;;;;;4.28;2.80;;;;;;;;;;10282411;28;20056;-67
2021/09/07 16:15:19;;;;;;;11.48;5.72;;;;;;;;;;10282193;28;20044;-66
2021/09/07 16:20:18;;;;;;;4.47;2.70;;;;;;;;;;10280902;28;20533;-64
2021/09/07 16:25:16;;;;;;;6.68;3.53;;;;;;;;;;10281829;28;20068;-64
2021/09/07 16:30:26;;;;;;;4.45;2.35;;;;;;;;;;10281047;28;20049;-64
2021/09/07 16:35:24;;;;;;;4.75;2.80;;;;;;;;;;10281708;28;20047;-64
2021/09/07 16:40:22;;;;;;;6.78;2.40;;;;;;;;;;10281294;28;20048;-65
2021/09/07 16:45:21;;;;;;;7.53;3.33;;;;;;;;;;10281079;28;20088;-64
2021/09/07 16:50:20;;;;;;;6.70;4.47;;;;;;;;;;10280776;28;20056;-65
2021/09/07 16:55:28;;;;;;;9.32;3.92;;;;;;;;;;10280006;28;20045;-64
2021/09/07 17:00:27;;;;;;;7.47;2.60;;;;;;;;;;10279549;28;20529;-65
2021/09/07 17:05:27;;;;;;;5.28;3.17;;;;;;;;;;10280242;28;20483;-64
2021/09/07 17:10:26;;;;;;;6.63;2.83;;;;;;;;;;10279225;28;20053;-64
2021/09/07 17:15:24;;;;;;;5.55;3.60;;;;;;;;;;10280171;28;20049;-65
2021/09/07 17:20:23;;;;;;;8.38;2.88;;;;;;;;;;10280074;28;20049;-65
2021/09/07 17:25:22;;;;;;;5.35;2.60;;;;;;;;;;10279411;28;20087;-65
2021/09/07 17:30:23;;;;;;;10.23;2.65;;;;;;;;;;10279345;28;20041;-64
2021/09/07 17:35:25;;;;;;;7.93;2.38;;;;;;;;;;10278997;28;20041;-63
2021/09/07 17:45:43;;;;;;;6.10;2.58;;;;;;;;;;10277595;28;20364;-64
2021/09/07 17:50:41;;;;;;;4.93;1.92;;;;;;;;;;10277223;28;20041;-64
2021/09/07 17:55:43;;;;;;;4.75;2.88;;;;;;;;;;10277238;28;20084;-62
2021/09/07 18:00:41;;;;;;;5.97;2.85;;;;;;;;;;10277184;28;20033;-64
2021/09/07 18:05:40;;;;;;;6.18;2.05;;;;;;;;;;10277002;28;20088;-64
2021/09/07 18:10:38;;;;;;;6.22;2.10;;;;;;;;;;10279143;28;20048;-64
2021/09/07 18:15:40;;;;;;;7.55;2.78;;;;;;;;;;10277867;28;20501;-64
2021/09/07 18:20:38;;;;;;;4.40;2.05;;;;;;;;;;10275995;28;20045;-64
2021/09/07 18:25:37;;;;;;;5.63;2.50;;;;;;;;;;10276097;28;20079;-64
2021/09/07 18:30:36;;;;;;;4.63;2.47;;;;;;;;;;10276526;28;20049;-65
2021/09/07 18:35:36;;;;;;;10.35;2.50;;;;;;;;;;10275624;28;20525;-64
2021/09/07 18:40:35;;;;;;;3.95;2.30;;;;;;;;;;10280156;28;20307;-65
2021/09/07 18:45:34;;;;;;;3.60;2.95;;;;;;;;;;10276109;28;20080;-65
2021/09/07 18:50:32;;;;;;;7.20;2.38;;;;;;;;;;10275274;28;20044;-65
2021/09/07 18:55:33;;;;;;;5.82;2.28;;;;;;;;;;10275809;28;20088;-65
2021/09/07 19:00:31;;;;;;;7.72;2.65;;;;;;;;;;10275273;28;20052;-65
2021/09/07 19:05:30;;;;;;;8.93;3.17;;;;;;;;;;10274666;28;20099;-64
2021/09/07 19:10:28;;;;;;;5.28;2.40;;;;;;;;;;10275085;28;20426;-64
2021/09/07 19:15:29;;;;;;;3.03;2.50;;;;;;;;;;10275756;28;20068;-64
2021/09/07 19:20:30;;;;;;;7.03;2.65;;;;;;;;;;10275138;28;20049;-64
2021/09/07 19:25:28;;;;;;;5.07;2.78;;;;;;;;;;10274823;28;20096;-64
2021/09/07 19:30:26;;;;;;;4.72;3.15;;;;;;;;;;10276689;28;20041;-64
2021/09/07 19:35:33;;;;;;;7.07;3.22;;;;;;;;;;10283414;28;20052;-64
2021/09/07 19:40:32;;;;;;;7.25;2.65;;;;;;;;;;10283011;28;20077;-64
2021/09/07 19:45:31;;;;;;;5.63;3.28;;;;;;;;;;10282239;28;20085;-63
2021/09/07 19:50:29;;;;;;;8.25;1.80;;;;;;;;;;10282342;28;20064;-64
2021/09/07 19:55:29;;;;;;;8.50;2.25;;;;;;;;;;10282793;28;20103;-64
2021/09/07 20:00:27;;;;;;;3.85;2.33;;;;;;;;;;10282182;28;20087;-64
2021/09/07 20:05:26;;;;;;;7.18;2.50;;;;;;;;;;10281942;28;20608;-65
2021/09/07 20:10:25;;;;;;;7.35;2.78;;;;;;;;;;10281353;28;20061;-64
2021/09/07 20:15:25;;;;;;;7.72;2.78;;;;;;;;;;10282064;28;20049;-63
2021/09/07 20:20:23;;;;;;;5.80;2.67;;;;;;;;;;10281846;28;20498;-64
2021/09/07 20:25:22;;;;;;;5.38;2.63;;;;;;;;;;10281883;28;20073;-64
2021/09/07 20:30:20;;;;;;;4.45;2.72;;;;;;;;;;10281837;28;20403;-64
2021/09/07 20:35:20;;;;;;;9.20;2.58;;;;;;;;;;10281701;28;20072;-64
2021/09/07 20:40:18;;;;;;;5.10;2.75;;;;;;;;;;10281530;28;20041;-64
2021/09/07 20:45:17;;;;;;;10.52;3.05;;;;;;;;;;10280410;28;20037;-65
2021/09/07 20:50:15;;;;;;;8.40;2.60;;;;;;;;;;10281001;28;20411;-64
2021/09/07 20:55:15;;;;;;;4.35;2.60;;;;;;;;;;10280751;28;20076;-64
2021/09/07 21:00:14;;;;;;;4.82;2.35;;;;;;;;;;10280624;28;20045;-64
2021/09/07 21:05:12;;;;;;;6.35;2.45;;;;;;;;;;10279676;28;20089;-65
2021/09/07 21:10:10;;;;;;;6.18;2.58;;;;;;;;;;10280257;28;20470;-64
2021/09/07 21:15:11;;;;;;;11.25;2.88;;;;;;;;;;10280095;28;20514;-64
2021/09/07 21:20:10;;;;;;;5.93;2.47;;;;;;;;;;10278949;28;20527;-64
2021/09/07 21:25:09;;;;;;;2.72;2.33;;;;;;;;;;10279726;28;20514;-62
2021/09/07 21:30:07;;;;;;;3.90;2.20;;;;;;;;;;10279399;28;20087;-64
2021/09/07 21:35:08;;;;;;;8.60;3.10;;;;;;;;;;10279277;28;20076;-64
2021/09/07 21:40:07;;;;;;;5.90;2.63;;;;;;;;;;10279118;28;20041;-65
2021/09/07 21:45:07;;;;;;;6.03;2.47;;;;;;;;;;10279030;28;20068;-64
2021/09/07 21:50:06;;;;;;;5.30;2.55;;;;;;;;;;10279487;28;20083;-64
2021/09/07 21:55:07;;;;;;;4.32;2.30;;;;;;;;;;10276747;28;20045;-64
2021/09/07 22:00:07;;;;;;;4.18;2.30;;;;;;;;;;10278303;28;20044;-64
2021/09/07 22:05:09;;;;;;;4.55;2.58;;;;;;;;;;10278425;28;20061;-64
2021/09/07 22:10:12;;;;;;;2.55;2.30;;;;;;;;;;10278022;28;20084;-65
2021/09/07 22:15:11;;;;;;;5.00;2.53;;;;;;;;;;10278794;28;20049;-64
2021/09/07 22:20:10;;;;;;;5.05;2.40;;;;;;;;;;10282025;28;20041;-65
2021/09/07 22:25:08;;;;;;;6.82;2.70;;;;;;;;;;10277880;28;20056;-64
2021/09/07 22:30:11;;;;;;;6.38;2.40;;;;;;;;;;10277126;28;20095;-64
2021/09/07 22:35:11;;;;;;;4.90;2.40;;;;;;;;;;10277064;28;20083;-64
2021/09/07 22:40:10;;;;;;;4.50;2.35;;;;;;;;;;10277120;28;20045;-64
2021/09/07 22:45:10;;;;;;;7.88;2.53;;;;;;;;;;10276509;28;20045;-64
2021/09/07 22:50:09;;;;;;;3.25;2.58;;;;;;;;;;10276491;28;20095;-64
2021/09/07 22:55:09;;;;;;;6.82;2.95;;;;;;;;;;10276885;28;20099;-64
2021/09/07 23:00:10;;;;;;;3.75;2.70;;;;;;;;;;10276604;28;20091;-64
2021/09/07 23:05:09;;;;;;;3.95;2.33;;;;;;;;;;10276820;28;20064;-64
2021/09/07 23:10:09;;;;;;;7.68;2.60;;;;;;;;;;10284870;28;20080;-65
2021/09/07 23:15:07;;;;;;;3.28;2.33;;;;;;;;;;10284598;28;20414;-65
2021/09/07 23:20:09;;;;;;;11.15;3.47;;;;;;;;;;10284482;28;20052;-65
2021/09/07 23:25:07;;;;;;;4.53;2.63;;;;;;;;;;10284577;28;20049;-65
2021/09/07 23:30:07;;;;;;;8.20;2.65;;;;;;;;;;10284187;28;20080;-65
2021/09/07 23:35:06;;;;;;;4.15;2.33;;;;;;;;;;10283375;28;20091;-65
2021/09/07 23:40:07;;;;;;;3.60;2.72;;;;;;;;;;10283882;28;20037;-62
2021/09/07 23:45:06;;;;;;;7.70;3.08;;;;;;;;;;10283510;28;20088;-64
2021/09/07 23:50:05;;;;;;;3.90;2.63;;;;;;;;;;10282443;28;20087;-64
2021/09/07 23:55:04;;;;;;;6.15;3.60;;;;;;;;;;10283093;28;20045;-64
